Manila, Philippines
Current Conditions -  °F | °C
As of 12:00 AM on Saturday 29 Nov 2014 (Local Time) from RPLL Reporting Station
Few Clouds Few Clouds  
Wind Chill: 81°   Ceiling: Unl
Heat Index: 86°   Visibility: 6mi
Dew Point: 75°   Wind: 6mph
Humidity: 84%   Direction: 140°SE
Pressure: 29.85"   Gusts: NA
Location:  14.62°N, 120.97°E
Report Text: RPLL 281600Z 14005KT 100V180 9999 FEW025 27/24 Q1011 NOSIG RMK A2985
Loading
Personal Weather Stations






























Interactive Weather Map New forecast layout! Learn more

10-Day Weather Forecast

Advertisements
Track Severe Weather on mobile